sensor_id;sensor_type;location;lat;lon;timestamp;P1;durP1;ratioP1;P2;durP2;ratioP2
42134;SDS011;28312;43.460;11.810;2022-11-09T00:01:34;8.07;;;5.32;;
42134;SDS011;28312;43.460;11.810;2022-11-09T00:05:39;4.45;;;2.78;;
42134;SDS011;28312;43.460;11.810;2022-11-09T00:09:44;9.95;;;6.57;;
42134;SDS011;28312;43.460;11.810;2022-11-09T00:13:47;6.30;;;4.40;;
42134;SDS011;28312;43.460;11.810;2022-11-09T00:17:51;4.03;;;3.25;;
42134;SDS011;28312;43.460;11.810;2022-11-09T00:21:55;6.60;;;4.35;;
42134;SDS011;28312;43.460;11.810;2022-11-09T00:25:59;7.13;;;5.03;;
42134;SDS011;28312;43.460;11.810;2022-11-09T00:30:03;8.88;;;4.00;;
42134;SDS011;28312;43.460;11.810;2022-11-09T00:34:08;6.40;;;4.25;;
42134;SDS011;28312;43.460;11.810;2022-11-09T00:38:11;7.75;;;4.85;;
42134;SDS011;28312;43.460;11.810;2022-11-09T00:42:15;7.18;;;4.47;;
42134;SDS011;28312;43.460;11.810;2022-11-09T00:46:18;6.75;;;4.65;;
42134;SDS011;28312;43.460;11.810;2022-11-09T00:50:25;9.75;;;5.07;;
42134;SDS011;28312;43.460;11.810;2022-11-09T00:54:31;10.40;;;6.43;;
42134;SDS011;28312;43.460;11.810;2022-11-09T00:58:35;8.52;;;6.47;;
42134;SDS011;28312;43.460;11.810;2022-11-09T01:02:39;9.02;;;5.85;;
42134;SDS011;28312;43.460;11.810;2022-11-09T01:06:43;7.20;;;4.65;;
42134;SDS011;28312;43.460;11.810;2022-11-09T01:10:47;7.00;;;4.75;;
42134;SDS011;28312;43.460;11.810;2022-11-09T01:14:51;10.30;;;6.55;;
42134;SDS011;28312;43.460;11.810;2022-11-09T01:18:56;9.50;;;4.97;;
42134;SDS011;28312;43.460;11.810;2022-11-09T01:23:00;7.28;;;5.03;;
42134;SDS011;28312;43.460;11.810;2022-11-09T01:27:05;9.25;;;6.53;;
42134;SDS011;28312;43.460;11.810;2022-11-09T01:31:12;12.82;;;7.20;;
42134;SDS011;28312;43.460;11.810;2022-11-09T01:35:17;11.10;;;5.90;;
42134;SDS011;28312;43.460;11.810;2022-11-09T01:39:21;11.52;;;8.75;;
42134;SDS011;28312;43.460;11.810;2022-11-09T01:43:24;13.00;;;10.55;;
42134;SDS011;28312;43.460;11.810;2022-11-09T01:47:28;30.08;;;10.93;;
42134;SDS011;28312;43.460;11.810;2022-11-09T01:56:06;11.05;;;6.40;;
42134;SDS011;28312;43.460;11.810;2022-11-09T02:00:12;15.65;;;9.23;;
42134;SDS011;28312;43.460;11.810;2022-11-09T02:04:19;8.43;;;6.65;;
42134;SDS011;28312;43.460;11.810;2022-11-09T02:08:33;12.00;;;7.97;;
42134;SDS011;28312;43.460;11.810;2022-11-09T02:12:36;10.57;;;6.75;;
42134;SDS011;28312;43.460;11.810;2022-11-09T02:16:40;6.90;;;5.22;;
42134;SDS011;28312;43.460;11.810;2022-11-09T02:20:45;12.05;;;7.30;;
42134;SDS011;28312;43.460;11.810;2022-11-09T02:24:49;9.20;;;5.45;;
42134;SDS011;28312;43.460;11.810;2022-11-09T02:28:57;8.27;;;4.03;;
42134;SDS011;28312;43.460;11.810;2022-11-09T02:33:02;9.02;;;6.07;;
42134;SDS011;28312;43.460;11.810;2022-11-09T02:37:06;9.40;;;4.70;;
42134;SDS011;28312;43.460;11.810;2022-11-09T02:41:09;7.95;;;5.07;;
42134;SDS011;28312;43.460;11.810;2022-11-09T02:45:15;6.88;;;4.20;;
42134;SDS011;28312;43.460;11.810;2022-11-09T02:49:18;7.32;;;4.78;;
42134;SDS011;28312;43.460;11.810;2022-11-09T02:53:22;9.07;;;6.03;;
42134;SDS011;28312;43.460;11.810;2022-11-09T02:57:25;13.95;;;8.40;;
42134;SDS011;28312;43.460;11.810;2022-11-09T03:01:29;16.63;;;8.90;;
42134;SDS011;28312;43.460;11.810;2022-11-09T03:05:33;10.48;;;8.20;;
42134;SDS011;28312;43.460;11.810;2022-11-09T03:09:37;8.45;;;6.32;;
42134;SDS011;28312;43.460;11.810;2022-11-09T03:13:41;10.55;;;7.20;;
42134;SDS011;28312;43.460;11.810;2022-11-09T03:17:44;8.32;;;6.28;;
42134;SDS011;28312;43.460;11.810;2022-11-09T03:21:49;8.75;;;6.10;;
42134;SDS011;28312;43.460;11.810;2022-11-09T03:25:56;8.30;;;6.55;;
42134;SDS011;28312;43.460;11.810;2022-11-09T03:30:00;10.07;;;5.60;;
42134;SDS011;28312;43.460;11.810;2022-11-09T03:34:04;10.57;;;7.22;;
42134;SDS011;28312;43.460;11.810;2022-11-09T03:38:09;5.78;;;4.72;;
42134;SDS011;28312;43.460;11.810;2022-11-09T03:42:13;9.93;;;8.60;;
42134;SDS011;28312;43.460;11.810;2022-11-09T03:46:17;8.88;;;6.18;;
42134;SDS011;28312;43.460;11.810;2022-11-09T03:50:21;7.85;;;5.57;;
42134;SDS011;28312;43.460;11.810;2022-11-09T03:54:27;7.80;;;4.75;;
42134;SDS011;28312;43.460;11.810;2022-11-09T03:58:30;10.27;;;6.38;;
42134;SDS011;28312;43.460;11.810;2022-11-09T04:02:33;9.00;;;6.53;;
42134;SDS011;28312;43.460;11.810;2022-11-09T04:06:37;9.25;;;6.43;;
42134;SDS011;28312;43.460;11.810;2022-11-09T04:10:40;19.85;;;13.02;;
42134;SDS011;28312;43.460;11.810;2022-11-09T04:14:44;13.63;;;11.02;;
42134;SDS011;28312;43.460;11.810;2022-11-09T04:18:47;12.05;;;10.52;;
42134;SDS011;28312;43.460;11.810;2022-11-09T04:23:01;10.00;;;7.05;;
42134;SDS011;28312;43.460;11.810;2022-11-09T04:27:06;14.52;;;10.50;;
42134;SDS011;28312;43.460;11.810;2022-11-09T04:31:09;12.57;;;9.93;;
42134;SDS011;28312;43.460;11.810;2022-11-09T04:35:13;13.35;;;10.60;;
42134;SDS011;28312;43.460;11.810;2022-11-09T04:39:16;16.52;;;11.70;;
42134;SDS011;28312;43.460;11.810;2022-11-09T04:43:20;9.10;;;6.03;;
42134;SDS011;28312;43.460;11.810;2022-11-09T04:47:23;15.50;;;9.80;;
42134;SDS011;28312;43.460;11.810;2022-11-09T04:51:27;9.70;;;7.65;;
42134;SDS011;28312;43.460;11.810;2022-11-09T04:55:35;11.00;;;8.13;;
42134;SDS011;28312;43.460;11.810;2022-11-09T04:59:40;9.88;;;7.88;;
42134;SDS011;28312;43.460;11.810;2022-11-09T05:03:43;8.35;;;6.80;;
42134;SDS011;28312;43.460;11.810;2022-11-09T05:07:47;11.38;;;9.38;;
42134;SDS011;28312;43.460;11.810;2022-11-09T05:11:50;11.55;;;10.00;;
42134;SDS011;28312;43.460;11.810;2022-11-09T05:15:53;10.65;;;7.85;;
42134;SDS011;28312;43.460;11.810;2022-11-09T05:19:57;9.23;;;7.00;;
42134;SDS011;28312;43.460;11.810;2022-11-09T05:24:01;10.75;;;7.65;;
42134;SDS011;28312;43.460;11.810;2022-11-09T05:28:04;12.65;;;10.18;;
42134;SDS011;28312;43.460;11.810;2022-11-09T05:32:08;14.27;;;9.30;;
42134;SDS011;28312;43.460;11.810;2022-11-09T05:36:11;11.73;;;9.48;;
42134;SDS011;28312;43.460;11.810;2022-11-09T05:40:15;11.10;;;6.10;;
42134;SDS011;28312;43.460;11.810;2022-11-09T05:44:19;9.50;;;6.50;;
42134;SDS011;28312;43.460;11.810;2022-11-09T05:48:23;7.22;;;4.68;;
42134;SDS011;28312;43.460;11.810;2022-11-09T05:52:26;6.78;;;5.63;;
42134;SDS011;28312;43.460;11.810;2022-11-09T05:56:29;6.47;;;4.97;;
42134;SDS011;28312;43.460;11.810;2022-11-09T06:00:33;10.25;;;6.10;;
42134;SDS011;28312;43.460;11.810;2022-11-09T06:04:37;8.48;;;6.10;;
42134;SDS011;28312;43.460;11.810;2022-11-09T06:08:40;11.40;;;6.03;;
42134;SDS011;28312;43.460;11.810;2022-11-09T06:12:49;14.80;;;8.85;;
42134;SDS011;28312;43.460;11.810;2022-11-09T06:16:52;7.65;;;5.60;;
42134;SDS011;28312;43.460;11.810;2022-11-09T06:20:56;12.63;;;7.28;;
42134;SDS011;28312;43.460;11.810;2022-11-09T06:25:04;10.35;;;8.15;;
42134;SDS011;28312;43.460;11.810;2022-11-09T06:29:07;11.98;;;8.52;;
42134;SDS011;28312;43.460;11.810;2022-11-09T06:33:11;11.85;;;9.27;;
42134;SDS011;28312;43.460;11.810;2022-11-09T06:37:15;10.00;;;6.45;;
42134;SDS011;28312;43.460;11.810;2022-11-09T06:41:21;8.60;;;5.03;;
42134;SDS011;28312;43.460;11.810;2022-11-09T06:45:24;10.80;;;6.88;;
42134;SDS011;28312;43.460;11.810;2022-11-09T06:49:30;7.85;;;4.65;;
42134;SDS011;28312;43.460;11.810;2022-11-09T06:53:35;7.82;;;4.28;;
42134;SDS011;28312;43.460;11.810;2022-11-09T06:57:41;6.05;;;4.22;;
42134;SDS011;28312;43.460;11.810;2022-11-09T07:01:44;8.82;;;6.28;;
42134;SDS011;28312;43.460;11.810;2022-11-09T07:05:48;12.98;;;5.75;;
42134;SDS011;28312;43.460;11.810;2022-11-09T07:09:53;7.28;;;4.53;;
42134;SDS011;28312;43.460;11.810;2022-11-09T07:13:57;7.50;;;5.25;;
42134;SDS011;28312;43.460;11.810;2022-11-09T07:18:01;8.57;;;5.60;;
42134;SDS011;28312;43.460;11.810;2022-11-09T07:22:06;8.95;;;5.32;;
42134;SDS011;28312;43.460;11.810;2022-11-09T07:26:09;10.55;;;6.93;;
42134;SDS011;28312;43.460;11.810;2022-11-09T07:30:13;14.43;;;7.35;;
42134;SDS011;28312;43.460;11.810;2022-11-09T07:34:17;8.30;;;5.38;;
42134;SDS011;28312;43.460;11.810;2022-11-09T07:38:20;6.95;;;4.10;;
42134;SDS011;28312;43.460;11.810;2022-11-09T07:42:24;8.82;;;4.38;;
42134;SDS011;28312;43.460;11.810;2022-11-09T07:46:28;7.47;;;4.03;;
42134;SDS011;28312;43.460;11.810;2022-11-09T07:50:32;3.38;;;2.28;;
42134;SDS011;28312;43.460;11.810;2022-11-09T07:54:37;8.88;;;4.13;;
42134;SDS011;28312;43.460;11.810;2022-11-09T07:58:43;7.93;;;5.38;;
42134;SDS011;28312;43.460;11.810;2022-11-09T08:02:49;6.95;;;4.15;;
42134;SDS011;28312;43.460;11.810;2022-11-09T08:06:56;8.48;;;4.32;;
42134;SDS011;28312;43.460;11.810;2022-11-09T08:11:00;5.40;;;2.65;;
42134;SDS011;28312;43.460;11.810;2022-11-09T08:15:05;5.78;;;4.25;;
42134;SDS011;28312;43.460;11.810;2022-11-09T08:19:09;4.53;;;2.40;;
42134;SDS011;28312;43.460;11.810;2022-11-09T08:23:13;4.93;;;3.20;;
42134;SDS011;28312;43.460;11.810;2022-11-09T08:27:18;7.77;;;4.97;;
42134;SDS011;28312;43.460;11.810;2022-11-09T08:31:22;6.57;;;3.75;;
42134;SDS011;28312;43.460;11.810;2022-11-09T08:35:25;4.75;;;3.30;;
42134;SDS011;28312;43.460;11.810;2022-11-09T08:39:30;7.70;;;5.15;;
42134;SDS011;28312;43.460;11.810;2022-11-09T08:43:33;5.63;;;3.10;;
42134;SDS011;28312;43.460;11.810;2022-11-09T08:47:37;11.55;;;6.68;;
42134;SDS011;28312;43.460;11.810;2022-11-09T08:51:40;6.95;;;3.72;;
42134;SDS011;28312;43.460;11.810;2022-11-09T08:55:44;9.07;;;4.55;;
42134;SDS011;28312;43.460;11.810;2022-11-09T09:03:55;9.02;;;5.68;;
42134;SDS011;28312;43.460;11.810;2022-11-09T09:07:58;5.88;;;4.25;;
42134;SDS011;28312;43.460;11.810;2022-11-09T09:12:03;5.35;;;3.63;;
42134;SDS011;28312;43.460;11.810;2022-11-09T09:16:10;7.43;;;4.57;;
42134;SDS011;28312;43.460;11.810;2022-11-09T09:20:15;4.93;;;2.35;;
42134;SDS011;28312;43.460;11.810;2022-11-09T09:24:21;3.58;;;1.95;;
42134;SDS011;28312;43.460;11.810;2022-11-09T09:28:25;3.97;;;2.50;;
42134;SDS011;28312;43.460;11.810;2022-11-09T09:32:30;4.50;;;2.70;;
42134;SDS011;28312;43.460;11.810;2022-11-09T09:36:33;11.20;;;6.50;;
42134;SDS011;28312;43.460;11.810;2022-11-09T09:40:50;13.10;;;6.15;;
42134;SDS011;28312;43.460;11.810;2022-11-09T09:45:04;6.55;;;4.05;;
42134;SDS011;28312;43.460;11.810;2022-11-09T09:49:18;7.40;;;3.38;;
42134;SDS011;28312;43.460;11.810;2022-11-09T09:57:38;7.78;;;3.75;;
42134;SDS011;28312;43.460;11.810;2022-11-09T10:01:47;9.43;;;5.70;;
42134;SDS011;28312;43.460;11.810;2022-11-09T10:05:55;5.40;;;3.92;;
42134;SDS011;28312;43.460;11.810;2022-11-09T10:23:22;8.20;;;5.95;;
42134;SDS011;28312;43.460;11.810;2022-11-09T10:27:48;6.20;;;3.67;;
42134;SDS011;28312;43.460;11.810;2022-11-09T10:32:15;4.47;;;3.10;;
42134;SDS011;28312;43.460;11.810;2022-11-09T10:36:24;4.70;;;2.95;;
42134;SDS011;28312;43.460;11.810;2022-11-09T10:40:58;5.68;;;4.03;;
42134;SDS011;28312;43.460;11.810;2022-11-09T10:45:30;5.18;;;4.13;;
42134;SDS011;28312;43.460;11.810;2022-11-09T10:50:05;6.45;;;4.68;;
42134;SDS011;28312;43.460;11.810;2022-11-09T10:54:37;6.07;;;4.28;;
42134;SDS011;28312;43.460;11.810;2022-11-09T10:59:02;4.65;;;3.03;;
42134;SDS011;28312;43.460;11.810;2022-11-09T11:03:44;7.70;;;4.70;;
42134;SDS011;28312;43.460;11.810;2022-11-09T11:08:20;5.07;;;3.80;;
42134;SDS011;28312;43.460;11.810;2022-11-09T11:13:31;6.38;;;4.53;;
42134;SDS011;28312;43.460;11.810;2022-11-09T11:17:28;5.00;;;4.25;;
42134;SDS011;28312;43.460;11.810;2022-11-09T11:26:42;4.63;;;3.65;;
42134;SDS011;28312;43.460;11.810;2022-11-09T11:31:13;6.63;;;4.68;;
42134;SDS011;28312;43.460;11.810;2022-11-09T11:35:41;6.10;;;5.40;;
42134;SDS011;28312;43.460;11.810;2022-11-09T11:40:26;5.38;;;3.55;;
42134;SDS011;28312;43.460;11.810;2022-11-09T11:45:27;3.60;;;2.83;;
42134;SDS011;28312;43.460;11.810;2022-11-09T11:50:16;5.78;;;3.83;;
42134;SDS011;28312;43.460;11.810;2022-11-09T12:09:39;4.25;;;2.92;;
42134;SDS011;28312;43.460;11.810;2022-11-09T12:37:40;2.70;;;1.50;;
42134;SDS011;28312;43.460;11.810;2022-11-09T12:42:38;3.22;;;2.25;;
42134;SDS011;28312;43.460;11.810;2022-11-09T12:47:08;3.83;;;2.30;;
42134;SDS011;28312;43.460;11.810;2022-11-09T12:51:36;4.13;;;3.03;;
42134;SDS011;28312;43.460;11.810;2022-11-09T13:05:04;3.60;;;1.77;;
42134;SDS011;28312;43.460;11.810;2022-11-09T13:10:13;2.88;;;1.98;;
42134;SDS011;28312;43.460;11.810;2022-11-09T13:14:51;3.10;;;1.60;;
42134;SDS011;28312;43.460;11.810;2022-11-09T13:23:55;3.17;;;2.03;;
42134;SDS011;28312;43.460;11.810;2022-11-09T13:41:56;3.70;;;3.03;;
42134;SDS011;28312;43.460;11.810;2022-11-09T13:46:23;4.55;;;3.22;;
42134;SDS011;28312;43.460;11.810;2022-11-09T13:50:57;4.18;;;2.65;;
42134;SDS011;28312;43.460;11.810;2022-11-09T13:55:25;3.35;;;2.42;;
42134;SDS011;28312;43.460;11.810;2022-11-09T13:59:57;2.20;;;1.58;;
42134;SDS011;28312;43.460;11.810;2022-11-09T14:04:25;3.92;;;2.55;;
42134;SDS011;28312;43.460;11.810;2022-11-09T14:08:48;3.50;;;2.80;;
42134;SDS011;28312;43.460;11.810;2022-11-09T14:13:28;4.18;;;2.78;;
42134;SDS011;28312;43.460;11.810;2022-11-09T14:18:09;3.28;;;2.00;;
42134;SDS011;28312;43.460;11.810;2022-11-09T14:22:34;4.90;;;2.33;;
42134;SDS011;28312;43.460;11.810;2022-11-09T14:27:00;4.90;;;2.58;;
42134;SDS011;28312;43.460;11.810;2022-11-09T14:31:39;3.80;;;2.67;;
42134;SDS011;28312;43.460;11.810;2022-11-09T14:36:05;3.75;;;1.70;;
42134;SDS011;28312;43.460;11.810;2022-11-09T14:40:28;2.67;;;2.05;;
42134;SDS011;28312;43.460;11.810;2022-11-09T14:44:52;5.15;;;3.00;;
42134;SDS011;28312;43.460;11.810;2022-11-09T14:49:14;5.25;;;3.05;;
42134;SDS011;28312;43.460;11.810;2022-11-09T14:53:37;3.95;;;2.08;;
42134;SDS011;28312;43.460;11.810;2022-11-09T14:58:01;2.83;;;1.40;;
42134;SDS011;28312;43.460;11.810;2022-11-09T15:02:23;3.88;;;1.20;;
42134;SDS011;28312;43.460;11.810;2022-11-09T15:06:47;2.53;;;1.50;;
42134;SDS011;28312;43.460;11.810;2022-11-09T15:11:10;2.85;;;1.58;;
42134;SDS011;28312;43.460;11.810;2022-11-09T15:15:32;3.50;;;1.70;;
42134;SDS011;28312;43.460;11.810;2022-11-09T15:19:57;4.20;;;1.73;;
42134;SDS011;28312;43.460;11.810;2022-11-09T15:24:21;3.42;;;2.47;;
42134;SDS011;28312;43.460;11.810;2022-11-09T15:28:45;3.90;;;2.00;;
42134;SDS011;28312;43.460;11.810;2022-11-09T15:42:03;2.38;;;1.60;;
42134;SDS011;28312;43.460;11.810;2022-11-09T15:46:27;2.00;;;1.23;;
42134;SDS011;28312;43.460;11.810;2022-11-09T15:55:16;2.70;;;1.63;;
42134;SDS011;28312;43.460;11.810;2022-11-09T15:59:42;2.85;;;2.25;;
42134;SDS011;28312;43.460;11.810;2022-11-09T16:04:05;3.22;;;1.70;;
42134;SDS011;28312;43.460;11.810;2022-11-09T16:08:27;2.88;;;1.70;;
42134;SDS011;28312;43.460;11.810;2022-11-09T16:12:53;5.22;;;2.40;;
42134;SDS011;28312;43.460;11.810;2022-11-09T16:17:15;3.00;;;1.65;;
42134;SDS011;28312;43.460;11.810;2022-11-09T16:21:37;3.08;;;1.85;;
42134;SDS011;28312;43.460;11.810;2022-11-09T16:26:06;3.10;;;1.50;;
42134;SDS011;28312;43.460;11.810;2022-11-09T16:30:30;3.00;;;1.50;;
42134;SDS011;28312;43.460;11.810;2022-11-09T16:34:52;2.35;;;1.27;;
42134;SDS011;28312;43.460;11.810;2022-11-09T16:39:34;2.90;;;1.55;;
42134;SDS011;28312;43.460;11.810;2022-11-09T16:43:56;2.33;;;1.10;;
42134;SDS011;28312;43.460;11.810;2022-11-09T16:48:18;2.85;;;1.67;;
42134;SDS011;28312;43.460;11.810;2022-11-09T16:52:40;4.93;;;2.08;;
42134;SDS011;28312;43.460;11.810;2022-11-09T16:57:02;3.50;;;1.38;;
42134;SDS011;28312;43.460;11.810;2022-11-09T17:01:24;3.40;;;2.13;;
42134;SDS011;28312;43.460;11.810;2022-11-09T17:05:46;2.75;;;1.90;;
42134;SDS011;28312;43.460;11.810;2022-11-09T17:10:09;2.67;;;1.80;;
42134;SDS011;28312;43.460;11.810;2022-11-09T17:14:35;2.63;;;1.77;;
42134;SDS011;28312;43.460;11.810;2022-11-09T17:18:58;1.83;;;1.15;;
42134;SDS011;28312;43.460;11.810;2022-11-09T17:23:20;1.98;;;1.05;;
42134;SDS011;28312;43.460;11.810;2022-11-09T17:27:41;5.75;;;2.72;;
42134;SDS011;28312;43.460;11.810;2022-11-09T17:32:04;5.32;;;3.10;;
42134;SDS011;28312;43.460;11.810;2022-11-09T17:36:27;4.88;;;2.40;;
42134;SDS011;28312;43.460;11.810;2022-11-09T17:41:13;2.33;;;1.33;;
42134;SDS011;28312;43.460;11.810;2022-11-09T17:45:37;3.85;;;2.20;;
42134;SDS011;28312;43.460;11.810;2022-11-09T17:50:00;7.47;;;3.45;;
42134;SDS011;28312;43.460;11.810;2022-11-09T17:54:22;4.35;;;2.40;;
42134;SDS011;28312;43.460;11.810;2022-11-09T17:58:44;3.65;;;1.85;;
42134;SDS011;28312;43.460;11.810;2022-11-09T18:03:07;3.85;;;1.60;;
42134;SDS011;28312;43.460;11.810;2022-11-09T18:07:29;4.60;;;2.50;;
42134;SDS011;28312;43.460;11.810;2022-11-09T18:11:51;4.05;;;2.63;;
42134;SDS011;28312;43.460;11.810;2022-11-09T18:16:16;6.88;;;4.05;;
42134;SDS011;28312;43.460;11.810;2022-11-09T18:20:39;3.13;;;2.00;;
42134;SDS011;28312;43.460;11.810;2022-11-09T18:25:01;4.38;;;3.22;;
42134;SDS011;28312;43.460;11.810;2022-11-09T18:29:26;9.88;;;6.35;;
42134;SDS011;28312;43.460;11.810;2022-11-09T18:33:48;6.57;;;4.18;;
42134;SDS011;28312;43.460;11.810;2022-11-09T18:38:10;8.98;;;4.38;;
42134;SDS011;28312;43.460;11.810;2022-11-09T18:42:33;6.90;;;3.95;;
42134;SDS011;28312;43.460;11.810;2022-11-09T18:46:55;4.72;;;3.22;;
42134;SDS011;28312;43.460;11.810;2022-11-09T18:51:24;8.73;;;4.72;;
42134;SDS011;28312;43.460;11.810;2022-11-09T18:55:46;7.30;;;4.72;;
42134;SDS011;28312;43.460;11.810;2022-11-09T19:00:09;5.40;;;2.47;;
42134;SDS011;28312;43.460;11.810;2022-11-09T19:04:32;7.30;;;4.28;;
42134;SDS011;28312;43.460;11.810;2022-11-09T19:08:55;5.10;;;3.28;;
42134;SDS011;28312;43.460;11.810;2022-11-09T19:13:35;6.95;;;4.28;;
42134;SDS011;28312;43.460;11.810;2022-11-09T19:18:00;4.10;;;2.28;;
42134;SDS011;28312;43.460;11.810;2022-11-09T19:22:23;3.35;;;1.77;;
42134;SDS011;28312;43.460;11.810;2022-11-09T19:26:48;4.13;;;2.13;;
42134;SDS011;28312;43.460;11.810;2022-11-09T19:31:12;20.73;;;14.02;;
42134;SDS011;28312;43.460;11.810;2022-11-09T19:35:36;9.35;;;6.55;;
42134;SDS011;28312;43.460;11.810;2022-11-09T19:39:59;4.03;;;2.78;;
42134;SDS011;28312;43.460;11.810;2022-11-09T19:44:20;5.53;;;3.42;;
42134;SDS011;28312;43.460;11.810;2022-11-09T19:48:43;5.82;;;3.38;;
42134;SDS011;28312;43.460;11.810;2022-11-09T19:53:05;7.50;;;4.50;;
42134;SDS011;28312;43.460;11.810;2022-11-09T19:57:28;6.00;;;3.10;;
42134;SDS011;28312;43.460;11.810;2022-11-09T20:01:51;9.23;;;4.60;;
42134;SDS011;28312;43.460;11.810;2022-11-09T20:06:12;5.38;;;3.38;;
42134;SDS011;28312;43.460;11.810;2022-11-09T20:10:35;6.22;;;3.70;;
42134;SDS011;28312;43.460;11.810;2022-11-09T20:14:58;5.20;;;3.78;;
42134;SDS011;28312;43.460;11.810;2022-11-09T20:19:23;3.80;;;2.33;;
42134;SDS011;28312;43.460;11.810;2022-11-09T20:23:45;9.30;;;6.00;;
42134;SDS011;28312;43.460;11.810;2022-11-09T20:28:08;12.48;;;8.40;;
42134;SDS011;28312;43.460;11.810;2022-11-09T20:32:29;4.32;;;2.38;;
42134;SDS011;28312;43.460;11.810;2022-11-09T20:36:51;8.40;;;3.92;;
42134;SDS011;28312;43.460;11.810;2022-11-09T20:41:13;6.82;;;4.10;;
42134;SDS011;28312;43.460;11.810;2022-11-09T20:45:35;6.30;;;3.88;;
42134;SDS011;28312;43.460;11.810;2022-11-09T20:49:57;6.13;;;3.80;;
42134;SDS011;28312;43.460;11.810;2022-11-09T20:54:19;5.93;;;3.75;;
42134;SDS011;28312;43.460;11.810;2022-11-09T20:58:41;8.32;;;4.25;;
42134;SDS011;28312;43.460;11.810;2022-11-09T21:03:04;8.90;;;5.50;;
42134;SDS011;28312;43.460;11.810;2022-11-09T21:07:29;4.32;;;2.58;;
42134;SDS011;28312;43.460;11.810;2022-11-09T21:11:51;6.68;;;2.88;;
42134;SDS011;28312;43.460;11.810;2022-11-09T21:16:33;7.43;;;4.45;;
42134;SDS011;28312;43.460;11.810;2022-11-09T21:20:55;7.60;;;3.58;;
42134;SDS011;28312;43.460;11.810;2022-11-09T21:25:22;7.13;;;3.20;;
42134;SDS011;28312;43.460;11.810;2022-11-09T21:30:03;5.85;;;3.70;;
42134;SDS011;28312;43.460;11.810;2022-11-09T21:34:26;3.47;;;2.50;;
42134;SDS011;28312;43.460;11.810;2022-11-09T21:38:56;9.20;;;3.75;;
42134;SDS011;28312;43.460;11.810;2022-11-09T21:43:18;5.82;;;3.63;;
42134;SDS011;28312;43.460;11.810;2022-11-09T21:47:41;5.80;;;3.30;;
42134;SDS011;28312;43.460;11.810;2022-11-09T21:52:02;5.88;;;3.60;;
42134;SDS011;28312;43.460;11.810;2022-11-09T21:56:25;7.15;;;3.88;;
42134;SDS011;28312;43.460;11.810;2022-11-09T22:00:47;3.92;;;2.88;;
42134;SDS011;28312;43.460;11.810;2022-11-09T22:05:10;10.15;;;5.95;;
42134;SDS011;28312;43.460;11.810;2022-11-09T22:09:31;6.20;;;3.65;;
42134;SDS011;28312;43.460;11.810;2022-11-09T22:14:15;8.05;;;4.28;;
42134;SDS011;28312;43.460;11.810;2022-11-09T22:18:57;6.80;;;3.88;;
42134;SDS011;28312;43.460;11.810;2022-11-09T22:23:54;11.43;;;7.00;;
42134;SDS011;28312;43.460;11.810;2022-11-09T22:28:16;7.80;;;4.95;;
42134;SDS011;28312;43.460;11.810;2022-11-09T22:32:39;8.27;;;4.70;;
42134;SDS011;28312;43.460;11.810;2022-11-09T22:37:01;11.18;;;6.05;;
42134;SDS011;28312;43.460;11.810;2022-11-09T22:41:22;8.63;;;3.95;;
42134;SDS011;28312;43.460;11.810;2022-11-09T22:45:44;5.65;;;3.40;;
42134;SDS011;28312;43.460;11.810;2022-11-09T22:50:07;6.55;;;4.32;;
42134;SDS011;28312;43.460;11.810;2022-11-09T22:54:30;6.30;;;2.78;;
42134;SDS011;28312;43.460;11.810;2022-11-09T22:58:51;9.60;;;6.28;;
42134;SDS011;28312;43.460;11.810;2022-11-09T23:03:13;5.05;;;3.28;;
42134;SDS011;28312;43.460;11.810;2022-11-09T23:07:36;5.90;;;4.32;;
42134;SDS011;28312;43.460;11.810;2022-11-09T23:11:59;5.75;;;3.45;;
42134;SDS011;28312;43.460;11.810;2022-11-09T23:16:22;6.15;;;3.83;;
42134;SDS011;28312;43.460;11.810;2022-11-09T23:20:43;6.03;;;3.63;;
42134;SDS011;28312;43.460;11.810;2022-11-09T23:25:05;7.60;;;4.65;;
42134;SDS011;28312;43.460;11.810;2022-11-09T23:29:47;3.00;;;2.25;;
42134;SDS011;28312;43.460;11.810;2022-11-09T23:34:09;9.00;;;5.15;;
42134;SDS011;28312;43.460;11.810;2022-11-09T23:38:32;5.65;;;3.30;;
42134;SDS011;28312;43.460;11.810;2022-11-09T23:43:00;6.87;;;3.70;;
42134;SDS011;28312;43.460;11.810;2022-11-09T23:47:22;7.68;;;3.95;;
42134;SDS011;28312;43.460;11.810;2022-11-09T23:51:44;5.72;;;3.03;;
42134;SDS011;28312;43.460;11.810;2022-11-09T23:56:08;5.50;;;4.03;;
